sensor_id;sensor_type;location;lat;lon;timestamp;pressure;altitude;pressure_sealevel;temperature;humidity
62708;BME280;48769;51.624;5.886;2023-03-04T00:02:16;102432.09;;;6.78;90.25
62708;BME280;48769;51.624;5.886;2023-03-04T00:04:41;102442.63;;;6.79;90.33
62708;BME280;48769;51.624;5.886;2023-03-04T00:07:06;102436.53;;;6.76;90.96
62708;BME280;48769;51.624;5.886;2023-03-04T00:09:32;102429.47;;;6.78;91.13
62708;BME280;48769;51.624;5.886;2023-03-04T00:11:57;102430.31;;;6.82;91.04
62708;BME280;48769;51.624;5.886;2023-03-04T00:14:22;102430.34;;;6.80;91.17
62708;BME280;48769;51.624;5.886;2023-03-04T00:16:48;102427.72;;;6.78;91.48
62708;BME280;48769;51.624;5.886;2023-03-04T00:19:13;102429.44;;;6.81;92.00
62708;BME280;48769;51.624;5.886;2023-03-04T00:21:39;102418.06;;;6.81;91.85
62708;BME280;48769;51.624;5.886;2023-03-04T00:24:04;102426.81;;;6.83;91.71
62708;BME280;48769;51.624;5.886;2023-03-04T00:26:30;102421.59;;;6.79;91.91
62708;BME280;48769;51.624;5.886;2023-03-04T00:28:56;102421.63;;;6.75;93.66
62708;BME280;48769;51.624;5.886;2023-03-04T00:31:21;102426.03;;;6.76;93.14
62708;BME280;48769;51.624;5.886;2023-03-04T00:33:47;102421.63;;;6.76;92.65
62708;BME280;48769;51.624;5.886;2023-03-04T00:36:12;102418.16;;;6.71;92.94
62708;BME280;48769;51.624;5.886;2023-03-04T00:38:37;102416.47;;;6.67;93.19
62708;BME280;48769;51.624;5.886;2023-03-04T00:41:03;102425.22;;;6.68;93.19
62708;BME280;48769;51.624;5.886;2023-03-04T00:43:28;102420.00;;;6.63;93.29
62708;BME280;48769;51.624;5.886;2023-03-04T00:45:54;102420.88;;;6.62;93.71
62708;BME280;48769;51.624;5.886;2023-03-04T00:48:19;102421.72;;;6.67;92.74
62708;BME280;48769;51.624;5.886;2023-03-04T00:50:45;102421.75;;;6.63;92.54
62708;BME280;48769;51.624;5.886;2023-03-04T00:53:10;102426.13;;;6.64;92.46
62708;BME280;48769;51.624;5.886;2023-03-04T00:55:36;102422.63;;;6.65;91.75
62708;BME280;48769;51.624;5.886;2023-03-04T00:58:02;102421.78;;;6.61;91.83
62708;BME280;48769;51.624;5.886;2023-03-04T01:00:27;102420.00;;;6.63;90.83
62708;BME280;48769;51.624;5.886;2023-03-04T01:02:52;102415.72;;;6.53;91.00
62708;BME280;48769;51.624;5.886;2023-03-04T01:05:18;102420.91;;;6.59;90.94
62708;BME280;48769;51.624;5.886;2023-03-04T01:07:43;102417.38;;;6.63;91.17
62708;BME280;48769;51.624;5.886;2023-03-04T01:10:12;102416.53;;;6.61;91.83
62708;BME280;48769;51.624;5.886;2023-03-04T01:12:37;102413.91;;;6.61;91.82
62708;BME280;48769;51.624;5.886;2023-03-04T01:15:04;102421.78;;;6.61;92.19
62708;BME280;48769;51.624;5.886;2023-03-04T01:17:30;102420.00;;;6.63;92.06
62708;BME280;48769;51.624;5.886;2023-03-04T01:19:55;102418.28;;;6.59;91.68
62708;BME280;48769;51.624;5.886;2023-03-04T01:22:20;102415.75;;;6.50;91.25
62708;BME280;48769;51.624;5.886;2023-03-04T01:24:45;102415.75;;;6.51;91.69
62708;BME280;48769;51.624;5.886;2023-03-04T01:27:11;102420.97;;;6.54;91.34
62708;BME280;48769;51.624;5.886;2023-03-04T01:29:36;102413.06;;;6.56;91.59
62708;BME280;48769;51.624;5.886;2023-03-04T01:32:02;102420.09;;;6.54;92.31
62708;BME280;48769;51.624;5.886;2023-03-04T01:34:27;102411.38;;;6.49;91.33
62708;BME280;48769;51.624;5.886;2023-03-04T01:36:52;102409.63;;;6.49;91.76
62708;BME280;48769;51.624;5.886;2023-03-04T01:39:18;102407.88;;;6.50;91.78
62708;BME280;48769;51.624;5.886;2023-03-04T01:41:43;102408.81;;;6.43;92.22
62708;BME280;48769;51.624;5.886;2023-03-04T01:44:09;102407.91;;;6.45;92.25
62708;BME280;48769;51.624;5.886;2023-03-04T01:46:36;102407.06;;;6.43;92.57
62708;BME280;48769;51.624;5.886;2023-03-04T01:49:02;102397.44;;;6.47;92.74
62708;BME280;48769;51.624;5.886;2023-03-04T01:51:27;102395.66;;;6.46;93.13
62708;BME280;48769;51.624;5.886;2023-03-04T01:53:53;102396.50;;;6.49;93.13
62708;BME280;48769;51.624;5.886;2023-03-04T01:56:38;102386.91;;;6.47;92.83
62708;BME280;48769;51.624;5.886;2023-03-04T01:59:23;102393.88;;;6.51;92.43
62708;BME280;48769;51.624;5.886;2023-03-04T02:01:51;102394.78;;;6.47;92.91
62708;BME280;48769;51.624;5.886;2023-03-04T02:04:18;102391.28;;;6.48;93.12
62708;BME280;48769;51.624;5.886;2023-03-04T02:06:45;102385.13;;;6.49;93.64
62708;BME280;48769;51.624;5.886;2023-03-04T02:09:11;102384.25;;;6.48;93.86
62708;BME280;48769;51.624;5.886;2023-03-04T02:11:37;102379.88;;;6.49;93.81
62708;BME280;48769;51.624;5.886;2023-03-04T02:14:04;102372.88;;;6.51;93.72
62708;BME280;48769;51.624;5.886;2023-03-04T02:16:30;102374.63;;;6.49;94.36
62708;BME280;48769;51.624;5.886;2023-03-04T02:18:56;102372.88;;;6.49;94.02
62708;BME280;48769;51.624;5.886;2023-03-04T02:21:26;102371.16;;;6.47;94.56
62708;BME280;48769;51.624;5.886;2023-03-04T02:26:29;102375.53;;;6.48;94.95
62708;BME280;48769;51.624;5.886;2023-03-04T02:28:56;102369.44;;;6.44;95.97
62708;BME280;48769;51.624;5.886;2023-03-04T02:31:26;102373.81;;;6.44;96.13
62708;BME280;48769;51.624;5.886;2023-03-04T02:33:55;102357.22;;;6.42;94.48
62708;BME280;48769;51.624;5.886;2023-03-04T02:36:21;102360.78;;;6.35;94.29
62708;BME280;48769;51.624;5.886;2023-03-04T02:38:49;102359.84;;;6.39;94.64
62708;BME280;48769;51.624;5.886;2023-03-04T02:41:18;102364.22;;;6.40;95.20
62708;BME280;48769;51.624;5.886;2023-03-04T02:43:45;102360.75;;;6.38;95.55
62708;BME280;48769;51.624;5.886;2023-03-04T02:46:12;102358.97;;;6.40;96.37
62708;BME280;48769;51.624;5.886;2023-03-04T02:48:37;102363.34;;;6.39;96.61
62708;BME280;48769;51.624;5.886;2023-03-04T02:51:03;102356.34;;;6.40;96.17
62708;BME280;48769;51.624;5.886;2023-03-04T02:53:28;102354.63;;;6.40;96.87
62708;BME280;48769;51.624;5.886;2023-03-04T02:55:53;102346.78;;;6.34;95.38
62708;BME280;48769;51.624;5.886;2023-03-04T02:58:19;102353.72;;;6.40;95.62
62708;BME280;48769;51.624;5.886;2023-03-04T03:00:44;102348.44;;;6.43;95.93
62708;BME280;48769;51.624;5.886;2023-03-04T03:03:09;102349.31;;;6.43;96.10
62708;BME280;48769;51.624;5.886;2023-03-04T03:05:35;102340.56;;;6.43;96.88
62708;BME280;48769;51.624;5.886;2023-03-04T03:08:02;102343.19;;;6.43;96.78
62708;BME280;48769;51.624;5.886;2023-03-04T03:10:27;102340.59;;;6.41;96.82
62708;BME280;48769;51.624;5.886;2023-03-04T03:12:52;102337.16;;;6.33;97.19
62708;BME280;48769;51.624;5.886;2023-03-04T03:15:18;102336.31;;;6.29;97.09
62708;BME280;48769;51.624;5.886;2023-03-04T03:17:44;102338.09;;;6.26;97.96
62708;BME280;48769;51.624;5.886;2023-03-04T03:20:11;102330.31;;;6.18;99.48
62708;BME280;48769;51.624;5.886;2023-03-04T03:22:38;102327.66;;;6.24;99.23
62708;BME280;48769;51.624;5.886;2023-03-04T03:25:04;102331.16;;;6.22;98.70
62708;BME280;48769;51.624;5.886;2023-03-04T03:27:29;102338.19;;;6.18;98.40
62708;BME280;48769;51.624;5.886;2023-03-04T03:29:54;102328.56;;;6.17;98.82
62708;BME280;48769;51.624;5.886;2023-03-04T03:32:20;102332.06;;;6.19;97.38
62708;BME280;48769;51.624;5.886;2023-03-04T03:34:45;102334.69;;;6.19;97.23
62708;BME280;48769;51.624;5.886;2023-03-04T03:37:10;102333.78;;;6.20;97.33
62708;BME280;48769;51.624;5.886;2023-03-04T03:39:36;102332.88;;;6.24;97.53
62708;BME280;48769;51.624;5.886;2023-03-04T03:42:01;102328.50;;;6.23;97.32
62708;BME280;48769;51.624;5.886;2023-03-04T03:44:27;102327.66;;;6.24;97.72
62708;BME280;48769;51.624;5.886;2023-03-04T03:46:52;102327.66;;;6.24;97.30
62708;BME280;48769;51.624;5.886;2023-03-04T03:49:17;102325.00;;;6.26;98.51
62708;BME280;48769;51.624;5.886;2023-03-04T03:51:43;102325.81;;;6.29;98.34
62708;BME280;48769;51.624;5.886;2023-03-04T03:54:08;102327.59;;;6.30;98.62
62708;BME280;48769;51.624;5.886;2023-03-04T03:56:34;102321.44;;;6.30;99.39
62708;BME280;48769;51.624;5.886;2023-03-04T03:58:59;102324.97;;;6.29;100.00
62708;BME280;48769;51.624;5.886;2023-03-04T04:01:24;102336.28;;;6.32;100.00
62708;BME280;48769;51.624;5.886;2023-03-04T04:03:50;102320.53;;;6.32;100.00
62708;BME280;48769;51.624;5.886;2023-03-04T04:06:15;102324.91;;;6.35;100.00
62708;BME280;48769;51.624;5.886;2023-03-04T04:08:41;102328.50;;;6.25;100.00
62708;BME280;48769;51.624;5.886;2023-03-04T04:11:09;102329.38;;;6.25;100.00
62708;BME280;48769;51.624;5.886;2023-03-04T04:13:34;102326.72;;;6.27;100.00
62708;BME280;48769;51.624;5.886;2023-03-04T04:16:00;102334.63;;;6.25;100.00
62708;BME280;48769;51.624;5.886;2023-03-04T04:18:25;102319.78;;;6.20;100.00
62708;BME280;48769;51.624;5.886;2023-03-04T04:20:51;102324.19;;;6.19;100.00
62708;BME280;48769;51.624;5.886;2023-03-04T04:23:17;102329.41;;;6.22;100.00
62708;BME280;48769;51.624;5.886;2023-03-04T04:25:42;102332.91;;;6.21;100.00
62708;BME280;48769;51.624;5.886;2023-03-04T04:28:07;102320.59;;;6.26;100.00
62708;BME280;48769;51.624;5.886;2023-03-04T04:30:33;102333.69;;;6.29;100.00
62708;BME280;48769;51.624;5.886;2023-03-04T04:32:59;102324.06;;;6.30;100.00
62708;BME280;48769;51.624;5.886;2023-03-04T04:35:26;102321.44;;;6.31;100.00
62708;BME280;48769;51.624;5.886;2023-03-04T04:37:52;102315.31;;;6.32;99.80
62708;BME280;48769;51.624;5.886;2023-03-04T04:40:17;102327.50;;;6.37;99.58
62708;BME280;48769;51.624;5.886;2023-03-04T04:42:43;102319.66;;;6.33;100.00
62708;BME280;48769;51.624;5.886;2023-03-04T04:45:09;102320.56;;;6.29;99.89
62708;BME280;48769;51.624;5.886;2023-03-04T04:47:34;102320.56;;;6.29;99.84
62708;BME280;48769;51.624;5.886;2023-03-04T04:50:00;102320.56;;;6.29;99.29
62708;BME280;48769;51.624;5.886;2023-03-04T04:52:25;102318.81;;;6.31;99.31
62708;BME280;48769;51.624;5.886;2023-03-04T04:54:51;102318.78;;;6.33;98.98
62708;BME280;48769;51.624;5.886;2023-03-04T04:57:16;102325.78;;;6.36;98.70
62708;BME280;48769;51.624;5.886;2023-03-04T04:59:41;102333.63;;;6.40;98.48
62708;BME280;48769;51.624;5.886;2023-03-04T05:02:07;102337.94;;;6.43;97.98
62708;BME280;48769;51.624;5.886;2023-03-04T05:04:32;102336.25;;;6.36;99.33
62708;BME280;48769;51.624;5.886;2023-03-04T05:06:57;102344.19;;;6.31;100.00
62708;BME280;48769;51.624;5.886;2023-03-04T05:09:23;102334.50;;;6.38;100.00
62708;BME280;48769;51.624;5.886;2023-03-04T05:11:48;102336.22;;;6.42;99.80
62708;BME280;48769;51.624;5.886;2023-03-04T05:14:14;102336.22;;;6.42;99.24
62708;BME280;48769;51.624;5.886;2023-03-04T05:16:39;102336.22;;;6.42;99.41
62708;BME280;48769;51.624;5.886;2023-03-04T05:19:05;102334.50;;;6.38;99.83
62708;BME280;48769;51.624;5.886;2023-03-04T05:21:30;102334.53;;;6.35;100.00
62708;BME280;48769;51.624;5.886;2023-03-04T05:23:56;102339.81;;;6.31;100.00
62708;BME280;48769;51.624;5.886;2023-03-04T05:26:21;102339.78;;;6.35;100.00
62708;BME280;48769;51.624;5.886;2023-03-04T05:28:47;102329.31;;;6.31;100.00
62708;BME280;48769;51.624;5.886;2023-03-04T05:31:12;102337.16;;;6.33;100.00
62708;BME280;48769;51.624;5.886;2023-03-04T05:33:37;102332.84;;;6.29;100.00
62708;BME280;48769;51.624;5.886;2023-03-04T05:36:04;102328.44;;;6.31;100.00
62708;BME280;48769;51.624;5.886;2023-03-04T05:38:30;102336.28;;;6.32;100.00
62708;BME280;48769;51.624;5.886;2023-03-04T05:40:57;102333.69;;;6.31;100.00
62708;BME280;48769;51.624;5.886;2023-03-04T05:43:24;102329.31;;;6.31;100.00
62708;BME280;48769;51.624;5.886;2023-03-04T05:45:50;102337.16;;;6.33;100.00
62708;BME280;48769;51.624;5.886;2023-03-04T05:48:15;102337.19;;;6.31;100.00
62708;BME280;48769;51.624;5.886;2023-03-04T05:50:40;102341.56;;;6.29;100.00
62708;BME280;48769;51.624;5.886;2023-03-04T05:53:06;102343.34;;;6.26;100.00
62708;BME280;48769;51.624;5.886;2023-03-04T05:55:31;102346.00;;;6.27;100.00
62708;BME280;48769;51.624;5.886;2023-03-04T05:57:59;102346.00;;;6.23;100.00
62708;BME280;48769;51.624;5.886;2023-03-04T06:00:25;102346.91;;;6.20;100.00
62708;BME280;48769;51.624;5.886;2023-03-04T06:02:50;102349.56;;;6.19;100.00
62708;BME280;48769;51.624;5.886;2023-03-04T06:05:16;102342.56;;;6.16;100.00
62708;BME280;48769;51.624;5.886;2023-03-04T06:07:42;102349.56;;;6.14;100.00
62708;BME280;48769;51.624;5.886;2023-03-04T06:10:08;102351.34;;;6.15;100.00
62708;BME280;48769;51.624;5.886;2023-03-04T06:12:34;102351.34;;;6.15;100.00
62708;BME280;48769;51.624;5.886;2023-03-04T06:15:00;102352.19;;;6.14;100.00
62708;BME280;48769;51.624;5.886;2023-03-04T06:17:27;102348.75;;;6.12;100.00
62708;BME280;48769;51.624;5.886;2023-03-04T06:19:52;102343.50;;;6.12;100.00
62708;BME280;48769;51.624;5.886;2023-03-04T06:22:18;102350.47;;;6.13;100.00
62708;BME280;48769;51.624;5.886;2023-03-04T06:24:43;102356.59;;;6.14;100.00
62708;BME280;48769;51.624;5.886;2023-03-04T06:27:08;102360.97;;;6.13;100.00
62708;BME280;48769;51.624;5.886;2023-03-04T06:29:34;102359.25;;;6.12;100.00
62708;BME280;48769;51.624;5.886;2023-03-04T06:31:59;102362.75;;;6.11;100.00
62708;BME280;48769;51.624;5.886;2023-03-04T06:34:24;102361.84;;;6.11;100.00
62708;BME280;48769;51.624;5.886;2023-03-04T06:36:50;102369.69;;;6.14;100.00
62708;BME280;48769;51.624;5.886;2023-03-04T06:39:15;102360.97;;;6.13;100.00
62708;BME280;48769;51.624;5.886;2023-03-04T06:41:41;102363.63;;;6.07;100.00
62708;BME280;48769;51.624;5.886;2023-03-04T06:44:06;102368.00;;;6.11;100.00
62708;BME280;48769;51.624;5.886;2023-03-04T06:46:33;102367.09;;;6.12;100.00
62708;BME280;48769;51.624;5.886;2023-03-04T06:48:58;102368.00;;;6.11;100.00
62708;BME280;48769;51.624;5.886;2023-03-04T06:51:25;102367.94;;;6.14;100.00
62708;BME280;48769;51.624;5.886;2023-03-04T06:53:50;102366.16;;;6.19;100.00
62708;BME280;48769;51.624;5.886;2023-03-04T06:56:16;102374.06;;;6.18;100.00
62708;BME280;48769;51.624;5.886;2023-03-04T06:58:42;102379.31;;;6.18;100.00
62708;BME280;48769;51.624;5.886;2023-03-04T07:01:14;102372.25;;;6.23;100.00
62708;BME280;48769;51.624;5.886;2023-03-04T07:03:40;102373.16;;;6.17;100.00
62708;BME280;48769;51.624;5.886;2023-03-04T07:06:06;102374.91;;;6.20;100.00
62708;BME280;48769;51.624;5.886;2023-03-04T07:08:32;102373.16;;;6.19;100.00
62708;BME280;48769;51.624;5.886;2023-03-04T07:10:57;102373.13;;;6.23;100.00
62708;BME280;48769;51.624;5.886;2023-03-04T07:13:22;102381.00;;;6.25;100.00
62708;BME280;48769;51.624;5.886;2023-03-04T07:15:48;102378.38;;;6.23;100.00
62708;BME280;48769;51.624;5.886;2023-03-04T07:18:13;102378.38;;;6.23;100.00
62708;BME280;48769;51.624;5.886;2023-03-04T07:20:38;102372.22;;;6.27;100.00
62708;BME280;48769;51.624;5.886;2023-03-04T07:23:03;102374.84;;;6.27;100.00
62708;BME280;48769;51.624;5.886;2023-03-04T07:25:29;102370.47;;;6.26;100.00
62708;BME280;48769;51.624;5.886;2023-03-04T07:27:54;102377.44;;;6.30;100.00
62708;BME280;48769;51.624;5.886;2023-03-04T07:30:19;102383.50;;;6.36;100.00
62708;BME280;48769;51.624;5.886;2023-03-04T07:32:45;102386.97;;;6.41;100.00
62708;BME280;48769;51.624;5.886;2023-03-04T07:35:10;102390.44;;;6.44;100.00
62708;BME280;48769;51.624;5.886;2023-03-04T07:37:36;102384.31;;;6.42;100.00
62708;BME280;48769;51.624;5.886;2023-03-04T07:40:01;102387.81;;;6.43;100.00
62708;BME280;48769;51.624;5.886;2023-03-04T07:42:26;102395.66;;;6.46;100.00
62708;BME280;48769;51.624;5.886;2023-03-04T07:44:51;102395.63;;;6.49;100.00
62708;BME280;48769;51.624;5.886;2023-03-04T07:47:19;102399.97;;;6.54;100.00
62708;BME280;48769;51.624;5.886;2023-03-04T07:49:44;102398.22;;;6.52;100.00
62708;BME280;48769;51.624;5.886;2023-03-04T07:52:10;102399.94;;;6.58;100.00
62708;BME280;48769;51.624;5.886;2023-03-04T07:54:35;102404.28;;;6.60;100.00
62708;BME280;48769;51.624;5.886;2023-03-04T07:57:00;102408.59;;;6.66;100.00
62708;BME280;48769;51.624;5.886;2023-03-04T07:59:26;102401.59;;;6.66;100.00
62708;BME280;48769;51.624;5.886;2023-03-04T08:01:51;102405.09;;;6.65;100.00
62708;BME280;48769;51.624;5.886;2023-03-04T08:04:16;102411.25;;;6.64;100.00
62708;BME280;48769;51.624;5.886;2023-03-04T08:06:42;102412.88;;;6.74;100.00
62708;BME280;48769;51.624;5.886;2023-03-04T08:09:08;102411.09;;;6.79;100.00
62708;BME280;48769;51.624;5.886;2023-03-04T08:11:36;102416.38;;;6.76;100.00
62708;BME280;48769;51.624;5.886;2023-03-04T08:14:03;102417.28;;;6.74;100.00
62708;BME280;48769;51.624;5.886;2023-03-04T08:16:28;102418.16;;;6.73;100.00
62708;BME280;48769;51.624;5.886;2023-03-04T08:18:56;102426.75;;;6.86;100.00
62708;BME280;48769;51.624;5.886;2023-03-04T08:21:23;102426.53;;;7.07;100.00
62708;BME280;48769;51.624;5.886;2023-03-04T08:23:50;102422.91;;;7.19;100.00
62708;BME280;48769;51.624;5.886;2023-03-04T08:26:22;102412.13;;;7.39;100.00
62708;BME280;48769;51.624;5.886;2023-03-04T08:28:48;102416.34;;;7.50;100.00
62708;BME280;48769;51.624;5.886;2023-03-04T08:31:15;102417.97;;;7.61;100.00
62708;BME280;48769;51.624;5.886;2023-03-04T08:33:41;102418.69;;;7.73;100.00
62708;BME280;48769;51.624;5.886;2023-03-04T08:36:06;102424.59;;;7.88;100.00
62708;BME280;48769;51.624;5.886;2023-03-04T08:38:32;102423.41;;;8.07;100.00
62708;BME280;48769;51.624;5.886;2023-03-04T08:40:58;102416.59;;;7.94;100.00
62708;BME280;48769;51.624;5.886;2023-03-04T08:43:25;102421.13;;;7.84;100.00
62708;BME280;48769;51.624;5.886;2023-03-04T08:45:52;102426.63;;;7.69;100.00
62708;BME280;48769;51.624;5.886;2023-03-04T08:48:18;102429.50;;;7.52;100.00
62708;BME280;48769;51.624;5.886;2023-03-04T08:50:44;102430.84;;;7.81;100.00
62708;BME280;48769;51.624;5.886;2023-03-04T08:53:11;102429.59;;;8.06;100.00
62708;BME280;48769;51.624;5.886;2023-03-04T08:55:40;102420.25;;;8.42;100.00
62708;BME280;48769;51.624;5.886;2023-03-04T08:58:06;102418.25;;;8.55;100.00
62708;BME280;48769;51.624;5.886;2023-03-04T09:00:34;102422.78;;;8.47;100.00
62708;BME280;48769;51.624;5.886;2023-03-04T09:02:59;102416.78;;;8.37;100.00
62708;BME280;48769;51.624;5.886;2023-03-04T09:05:25;102410.56;;;8.43;99.43
62708;BME280;48769;51.624;5.886;2023-03-04T09:07:50;102402.72;;;8.88;98.05
62708;BME280;48769;51.624;5.886;2023-03-04T09:10:16;102407.81;;;8.97;95.91
62708;BME280;48769;51.624;5.886;2023-03-04T09:12:41;102406.03;;;8.98;94.94
62708;BME280;48769;51.624;5.886;2023-03-04T09:15:07;102406.66;;;9.10;93.85
62708;BME280;48769;51.624;5.886;2023-03-04T09:17:32;102413.66;;;9.11;93.67
62708;BME280;48769;51.624;5.886;2023-03-04T09:19:58;102401.22;;;9.18;92.56
62708;BME280;48769;51.624;5.886;2023-03-04T09:22:23;102403.69;;;9.26;92.52
62708;BME280;48769;51.624;5.886;2023-03-04T09:24:49;102398.34;;;9.29;92.03
62708;BME280;48769;51.624;5.886;2023-03-04T09:27:14;102393.16;;;9.26;91.16
62708;BME280;48769;51.624;5.886;2023-03-04T09:29:39;102393.09;;;9.29;90.00
62708;BME280;48769;51.624;5.886;2023-03-04T09:32:05;102390.41;;;9.71;90.30
62708;BME280;48769;51.624;5.886;2023-03-04T09:34:30;102391.56;;;9.96;88.69
62708;BME280;48769;51.624;5.886;2023-03-04T09:36:56;102385.84;;;10.15;86.78
62708;BME280;48769;51.624;5.886;2023-03-04T09:39:21;102382.03;;;10.25;84.80
62708;BME280;48769;51.624;5.886;2023-03-04T09:41:49;102372.19;;;10.66;82.71
62708;BME280;48769;51.624;5.886;2023-03-04T09:44:29;102372.84;;;10.74;80.75
62708;BME280;48769;51.624;5.886;2023-03-04T09:46:59;102369.13;;;11.12;78.96
62708;BME280;48769;51.624;5.886;2023-03-04T09:49:25;102361.13;;;11.14;77.25
62708;BME280;48769;51.624;5.886;2023-03-04T09:59:52;102354.97;;;11.71;71.52
62708;BME280;48769;51.624;5.886;2023-03-04T10:02:36;102358.63;;;11.37;73.28
62708;BME280;48769;51.624;5.886;2023-03-04T10:05:04;102360.94;;;10.90;74.25
62708;BME280;48769;51.624;5.886;2023-03-04T10:07:36;102370.13;;;10.44;75.53
62708;BME280;48769;51.624;5.886;2023-03-04T10:10:06;102362.78;;;10.20;76.82
62708;BME280;48769;51.624;5.886;2023-03-04T10:12:37;102374.00;;;9.95;78.65
62708;BME280;48769;51.624;5.886;2023-03-04T10:15:22;102373.97;;;9.59;78.97
62708;BME280;48769;51.624;5.886;2023-03-04T10:17:51;102370.72;;;9.47;80.04
62708;BME280;48769;51.624;5.886;2023-03-04T10:20:22;102367.19;;;9.48;80.85
62708;BME280;48769;51.624;5.886;2023-03-04T10:22:50;102375.06;;;9.49;82.31
62708;BME280;48769;51.624;5.886;2023-03-04T10:27:53;102376.66;;;9.56;84.16
62708;BME280;48769;51.624;5.886;2023-03-04T10:30:30;102376.59;;;9.59;85.83
62708;BME280;48769;51.624;5.886;2023-03-04T10:32:57;102372.97;;;9.64;85.76
62708;BME280;48769;51.624;5.886;2023-03-04T10:35:27;102377.47;;;9.58;85.73
62708;BME280;48769;51.624;5.886;2023-03-04T10:38:01;102378.53;;;9.51;86.28
62708;BME280;48769;51.624;5.886;2023-03-04T10:40:26;102374.22;;;9.47;87.14
62708;BME280;48769;51.624;5.886;2023-03-04T10:42:52;102374.09;;;9.53;86.93
62708;BME280;48769;51.624;5.886;2023-03-04T10:45:22;102367.97;;;9.51;85.99
62708;BME280;48769;51.624;5.886;2023-03-04T10:47:53;102376.56;;;9.21;86.92
62708;BME280;48769;51.624;5.886;2023-03-04T10:50:27;102366.75;;;9.27;87.50
62708;BME280;48769;51.624;5.886;2023-03-04T10:52:54;102367.50;;;9.32;87.51
62708;BME280;48769;51.624;5.886;2023-03-04T10:55:29;102365.53;;;9.42;87.87
62708;BME280;48769;51.624;5.886;2023-03-04T10:58:03;102361.03;;;9.47;87.13
62708;BME280;48769;51.624;5.886;2023-03-04T11:00:34;102356.47;;;9.55;87.52
62708;BME280;48769;51.624;5.886;2023-03-04T11:03:22;102362.41;;;9.64;87.18
62708;BME280;48769;51.624;5.886;2023-03-04T11:05:48;102348.00;;;9.78;86.59
62708;BME280;48769;51.624;5.886;2023-03-04T11:08:18;102346.53;;;10.02;85.15
62708;BME280;48769;51.624;5.886;2023-03-04T11:10:44;102335.06;;;10.03;84.16
62708;BME280;48769;51.624;5.886;2023-03-04T11:15:49;102334.91;;;10.10;81.70
62708;BME280;48769;51.624;5.886;2023-03-04T11:18:16;102335.50;;;10.21;82.97
62708;BME280;48769;51.624;5.886;2023-03-04T11:20:45;102327.69;;;10.16;82.31
62708;BME280;48769;51.624;5.886;2023-03-04T11:25:49;102316.28;;;10.48;81.64
62708;BME280;48769;51.624;5.886;2023-03-04T11:28:25;102317.47;;;10.69;80.63
62708;BME280;48769;51.624;5.886;2023-03-04T11:31:02;102309.72;;;10.63;78.75
62708;BME280;48769;51.624;5.886;2023-03-04T11:33:49;102311.00;;;10.48;79.91
62708;BME280;48769;51.624;5.886;2023-03-04T11:36:49;102300.84;;;10.33;79.15
62708;BME280;48769;51.624;5.886;2023-03-04T11:39:41;102306.84;;;10.05;79.81
62708;BME280;48769;51.624;5.886;2023-03-04T11:44:45;102297.59;;;9.88;81.65
62708;BME280;48769;51.624;5.886;2023-03-04T11:52:40;102304.81;;;9.81;82.88
62708;BME280;48769;51.624;5.886;2023-03-04T11:55:28;102303.72;;;9.91;83.06
62708;BME280;48769;51.624;5.886;2023-03-04T11:58:33;102293.69;;;10.38;82.06
62708;BME280;48769;51.624;5.886;2023-03-04T12:14:12;102282.66;;;9.88;82.87
62708;BME280;48769;51.624;5.886;2023-03-04T12:17:21;102266.97;;;9.82;83.27
62708;BME280;48769;51.624;5.886;2023-03-04T12:22:46;102274.78;;;9.87;83.96
62708;BME280;48769;51.624;5.886;2023-03-04T12:25:31;102257.75;;;9.98;83.87
62708;BME280;48769;51.624;5.886;2023-03-04T12:30:56;102243.41;;;10.09;82.51
62708;BME280;48769;51.624;5.886;2023-03-04T12:33:32;102248.53;;;10.15;83.24
62708;BME280;48769;51.624;5.886;2023-03-04T12:39:02;102238.91;;;10.12;81.14
62708;BME280;48769;51.624;5.886;2023-03-04T12:45:07;102226.97;;;10.30;81.50
62708;BME280;48769;51.624;5.886;2023-03-04T12:56:38;102217.72;;;10.46;80.92
62708;BME280;48769;51.624;5.886;2023-03-04T12:59:05;102219.06;;;10.30;81.05
62708;BME280;48769;51.624;5.886;2023-03-04T13:01:48;102215.59;;;10.28;81.28
62708;BME280;48769;51.624;5.886;2023-03-04T13:07:17;102221.41;;;10.08;81.77
62708;BME280;48769;51.624;5.886;2023-03-04T13:12:50;102224.31;;;9.97;83.60
62708;BME280;48769;51.624;5.886;2023-03-04T13:15:36;102221.06;;;9.88;84.22
62708;BME280;48769;51.624;5.886;2023-03-04T13:18:34;102216.00;;;9.80;84.65
62708;BME280;48769;51.624;5.886;2023-03-04T13:23:38;102214.44;;;9.73;87.44
62708;BME280;48769;51.624;5.886;2023-03-04T13:26:28;102214.34;;;9.76;88.92
62708;BME280;48769;51.624;5.886;2023-03-04T13:29:29;102206.72;;;9.65;90.39
62708;BME280;48769;51.624;5.886;2023-03-04T13:32:03;102201.09;;;9.77;90.89
62708;BME280;48769;51.624;5.886;2023-03-04T13:42:54;102183.81;;;10.61;86.69
62708;BME280;48769;51.624;5.886;2023-03-04T13:45:35;102176.16;;;10.81;84.92
62708;BME280;48769;51.624;5.886;2023-03-04T13:48:02;102174.25;;;10.85;84.60
62708;BME280;48769;51.624;5.886;2023-03-04T13:50:38;102174.91;;;11.19;83.34
62708;BME280;48769;51.624;5.886;2023-03-04T13:53:28;102170.78;;;11.37;82.12
62708;BME280;48769;51.624;5.886;2023-03-04T13:58:48;102169.13;;;11.08;81.18
62708;BME280;48769;51.624;5.886;2023-03-04T14:01:29;102172.47;;;10.85;81.63
62708;BME280;48769;51.624;5.886;2023-03-04T14:03:56;102170.84;;;10.81;82.17
62708;BME280;48769;51.624;5.886;2023-03-04T14:06:29;102168.47;;;10.73;82.04
62708;BME280;48769;51.624;5.886;2023-03-04T14:08:56;102167.13;;;10.59;82.82
62708;BME280;48769;51.624;5.886;2023-03-04T14:11:46;102165.59;;;10.51;82.96
62708;BME280;48769;51.624;5.886;2023-03-04T14:14:17;102167.13;;;10.31;82.32
62708;BME280;48769;51.624;5.886;2023-03-04T14:16:51;102166.06;;;10.36;82.57
62708;BME280;48769;51.624;5.886;2023-03-04T14:19:28;102165.84;;;10.44;82.02
62708;BME280;48769;51.624;5.886;2023-03-04T14:21:55;102159.41;;;10.52;81.17